Time;durP1;ratioP1;P1;durP2;ratioP2;P2;SDS_P1;SDS_P2;PMS_P1;PMS_P2;Temp;Humidity;BMP_temperature;BMP_pressure;BME280_temperature;BME280_humidity;BME280_pressure;Samples;Min_cycle;Max_cycle;Signal;HPM_P1;HPM_P2
2021/08/30 00:00:22;;;;;;;3.35;0.60;;;;;;;;;;5032932;28;20982;-72
2021/08/30 00:02:49;;;;;;;3.45;0.30;;;;;;;;;;5033410;28;20025;-69
2021/08/30 00:05:16;;;;;;;3.58;0.52;;;;;;;;;;5037032;28;20021;-71
2021/08/30 00:07:43;;;;;;;1.95;0.43;;;;;;;;;;5033289;28;20501;-71
2021/08/30 00:10:11;;;;;;;4.07;0.50;;;;;;;;;;5032782;28;20021;-72
2021/08/30 00:12:40;;;;;;;2.60;0.50;;;;;;;;;;5033676;28;20057;-73
2021/08/30 00:15:09;;;;;;;0.95;0.40;;;;;;;;;;5034890;28;20018;-72
2021/08/30 00:17:36;;;;;;;1.38;0.40;;;;;;;;;;5033051;28;20029;-72
2021/08/30 00:20:04;;;;;;;1.45;0.40;;;;;;;;;;5044016;28;20077;-71
2021/08/30 00:22:31;;;;;;;1.23;0.30;;;;;;;;;;5041582;28;20439;-70
2021/08/30 00:25:01;;;;;;;3.33;0.43;;;;;;;;;;5037049;28;20051;-70
2021/08/30 00:27:29;;;;;;;1.77;0.50;;;;;;;;;;5035085;28;20026;-71
2021/08/30 00:29:57;;;;;;;1.50;0.40;;;;;;;;;;5034356;28;20022;-70
2021/08/30 00:32:24;;;;;;;1.58;0.60;;;;;;;;;;5031505;28;20018;-71
2021/08/30 00:34:51;;;;;;;5.63;0.50;;;;;;;;;;5032377;28;20028;-69
2021/08/30 00:37:19;;;;;;;2.50;0.60;;;;;;;;;;5033764;28;20084;-69
2021/08/30 00:39:47;;;;;;;2.47;0.40;;;;;;;;;;5031311;28;20025;-70
2021/08/30 00:42:14;;;;;;;0.95;0.25;;;;;;;;;;5030552;28;20082;-70
2021/08/30 00:44:41;;;;;;;0.80;0.22;;;;;;;;;;5037845;28;20023;-70
2021/08/30 00:47:08;;;;;;;1.00;0.20;;;;;;;;;;5040176;28;20025;-70
2021/08/30 00:49:35;;;;;;;3.38;0.93;;;;;;;;;;5033046;28;20072;-70
2021/08/30 00:52:03;;;;;;;1.15;0.40;;;;;;;;;;5034222;28;20678;-70
2021/08/30 00:54:31;;;;;;;1.30;0.40;;;;;;;;;;5036246;28;20331;-71
2021/08/30 00:56:59;;;;;;;1.27;0.30;;;;;;;;;;5035183;28;20025;-70
2021/08/30 00:59:26;;;;;;;0.90;0.20;;;;;;;;;;5033279;28;20463;-70
2021/08/30 01:01:53;;;;;;;0.98;0.30;;;;;;;;;;5033562;28;20430;-71
2021/08/30 01:04:21;;;;;;;0.93;0.25;;;;;;;;;;5037035;28;20096;-70
2021/08/30 01:07:08;;;;;;;2.00;0.30;;;;;;;;;;5035432;28;20052;-69
2021/08/30 01:09:40;;;;;;;4.10;0.50;;;;;;;;;;5030126;28;20040;-71
2021/08/30 01:12:13;;;;;;;1.85;0.30;;;;;;;;;;5035116;28;20497;-71
2021/08/30 01:14:58;;;;;;;1.45;0.30;;;;;;;;;;5033917;28;20028;-72
2021/08/30 01:17:26;;;;;;;1.40;0.30;;;;;;;;;;5038159;28;20417;-71
2021/08/30 01:20:05;;;;;;;0.50;0.25;;;;;;;;;;5035314;28;20029;-71
2021/08/30 01:22:34;;;;;;;0.35;0.20;;;;;;;;;;5029748;28;20124;-70
2021/08/30 01:25:02;;;;;;;0.80;0.30;;;;;;;;;;5036960;28;20359;-71
2021/08/30 01:27:30;;;;;;;1.50;0.55;;;;;;;;;;5031696;28;20018;-70
2021/08/30 01:30:01;;;;;;;1.65;0.25;;;;;;;;;;5032860;28;20055;-70
2021/08/30 01:32:31;;;;;;;2.08;0.35;;;;;;;;;;5036545;28;20055;-70
2021/08/30 01:35:00;;;;;;;1.48;0.30;;;;;;;;;;5034522;28;20421;-70
2021/08/30 01:37:28;;;;;;;1.38;0.30;;;;;;;;;;5042354;28;20559;-70
2021/08/30 01:39:56;;;;;;;2.17;0.22;;;;;;;;;;5038364;28;20049;-70
2021/08/30 01:42:23;;;;;;;0.90;0.30;;;;;;;;;;5034731;28;20704;-70
2021/08/30 01:44:51;;;;;;;1.25;0.20;;;;;;;;;;5042782;28;20032;-69
2021/08/30 01:47:18;;;;;;;1.42;0.35;;;;;;;;;;5033423;28;20036;-70
2021/08/30 01:49:49;;;;;;;1.08;0.25;;;;;;;;;;5034674;28;20409;-70
2021/08/30 01:52:16;;;;;;;2.33;0.47;;;;;;;;;;5034599;28;20350;-70
2021/08/30 01:54:45;;;;;;;0.88;0.35;;;;;;;;;;5047129;28;20029;-71
2021/08/30 01:57:19;;;;;;;0.77;0.20;;;;;;;;;;5040855;28;20029;-71
2021/08/30 02:02:32;;;;;;;0.85;0.40;;;;;;;;;;5041510;28;20049;-70
2021/08/30 02:04:59;;;;;;;1.77;0.25;;;;;;;;;;5040577;28;20025;-70
2021/08/30 02:07:27;;;;;;;2.85;0.50;;;;;;;;;;5035158;28;20023;-71
2021/08/30 02:09:54;;;;;;;3.88;0.60;;;;;;;;;;5035465;28;20018;-69
2021/08/30 02:12:21;;;;;;;2.13;0.40;;;;;;;;;;5038824;28;20505;-70
2021/08/30 02:14:48;;;;;;;2.85;0.40;;;;;;;;;;5035353;28;20060;-71
2021/08/30 02:17:20;;;;;;;2.00;0.30;;;;;;;;;;5039674;28;20025;-70
2021/08/30 02:19:56;;;;;;;3.40;0.45;;;;;;;;;;5034340;28;20033;-70
2021/08/30 02:22:36;;;;;;;0.95;0.22;;;;;;;;;;5035068;28;20025;-70
2021/08/30 02:25:08;;;;;;;2.33;0.35;;;;;;;;;;5041627;28;20086;-70
2021/08/30 02:27:55;;;;;;;2.75;0.40;;;;;;;;;;5053230;28;20370;-70
2021/08/30 02:30:23;;;;;;;0.90;0.30;;;;;;;;;;5045882;28;20386;-70
2021/08/30 02:32:56;;;;;;;2.63;0.50;;;;;;;;;;5048478;28;20037;-70
2021/08/30 02:35:24;;;;;;;2.40;0.30;;;;;;;;;;5052168;28;20029;-69
2021/08/30 02:37:54;;;;;;;2.42;0.40;;;;;;;;;;5038554;28;20049;-69
2021/08/30 02:40:24;;;;;;;1.88;0.40;;;;;;;;;;5034676;28;20026;-70
2021/08/30 02:42:52;;;;;;;1.45;0.40;;;;;;;;;;5043047;28;20112;-69
2021/08/30 02:45:19;;;;;;;1.20;0.32;;;;;;;;;;5052328;28;20078;-69
2021/08/30 02:47:47;;;;;;;2.72;0.70;;;;;;;;;;5039962;28;20108;-70
2021/08/30 02:50:15;;;;;;;1.30;0.30;;;;;;;;;;5036910;28;20096;-70
2021/08/30 02:52:43;;;;;;;3.67;0.40;;;;;;;;;;5033398;28;20037;-71
2021/08/30 02:55:11;;;;;;;1.10;0.30;;;;;;;;;;5044001;28;20067;-70
2021/08/30 02:57:39;;;;;;;1.75;0.20;;;;;;;;;;5054332;28;20074;-71
2021/08/30 03:00:07;;;;;;;2.50;0.30;;;;;;;;;;5038625;28;20037;-69
2021/08/30 03:02:35;;;;;;;1.63;0.20;;;;;;;;;;5033285;28;20124;-70
2021/08/30 03:05:02;;;;;;;2.40;0.65;;;;;;;;;;5044593;28;20112;-71
2021/08/30 03:07:30;;;;;;;1.17;0.35;;;;;;;;;;5044620;28;20032;-70
2021/08/30 03:09:59;;;;;;;0.88;0.20;;;;;;;;;;5042246;28;20358;-70
2021/08/30 03:12:27;;;;;;;1.98;0.60;;;;;;;;;;5040872;28;20385;-70
2021/08/30 03:14:59;;;;;;;1.83;0.35;;;;;;;;;;5039345;28;20068;-70
2021/08/30 03:17:26;;;;;;;1.50;0.43;;;;;;;;;;5045231;28;20539;-70
2021/08/30 03:19:54;;;;;;;2.90;0.28;;;;;;;;;;5049497;28;20394;-70
2021/08/30 03:22:21;;;;;;;1.52;0.32;;;;;;;;;;5035150;28;20044;-71
2021/08/30 03:24:49;;;;;;;2.85;0.40;;;;;;;;;;5042643;28;20092;-70
2021/08/30 03:27:16;;;;;;;3.50;0.30;;;;;;;;;;5034263;28;20033;-70
2021/08/30 03:29:45;;;;;;;1.50;0.50;;;;;;;;;;5038200;28;20104;-70
2021/08/30 03:32:14;;;;;;;1.50;0.50;;;;;;;;;;5035280;28;20165;-71
2021/08/30 03:34:42;;;;;;;0.55;0.30;;;;;;;;;;5035192;28;20032;-71
2021/08/30 03:37:09;;;;;;;5.22;0.77;;;;;;;;;;5035115;28;20678;-70
2021/08/30 03:39:36;;;;;;;1.08;0.40;;;;;;;;;;5042885;28;20047;-70
2021/08/30 03:42:04;;;;;;;1.17;0.30;;;;;;;;;;5036822;28;20123;-70
2021/08/30 03:44:32;;;;;;;1.52;0.20;;;;;;;;;;5047391;28;20028;-71
2021/08/30 03:47:00;;;;;;;0.65;0.17;;;;;;;;;;5039720;28;20106;-71
2021/08/30 03:49:29;;;;;;;2.55;0.30;;;;;;;;;;5039075;28;20377;-70
2021/08/30 03:51:58;;;;;;;2.10;0.40;;;;;;;;;;5036004;28;20110;-70
2021/08/30 03:54:25;;;;;;;1.95;0.57;;;;;;;;;;5038561;28;20029;-71
2021/08/30 03:56:53;;;;;;;2.70;0.70;;;;;;;;;;5037069;28;20043;-70
2021/08/30 03:59:21;;;;;;;1.70;0.28;;;;;;;;;;5037479;28;20018;-70
2021/08/30 04:01:51;;;;;;;2.65;0.30;;;;;;;;;;5041992;28;20095;-71
2021/08/30 04:04:21;;;;;;;0.75;0.17;;;;;;;;;;5034134;28;20049;-71
2021/08/30 04:06:50;;;;;;;1.75;0.20;;;;;;;;;;5041783;28;20013;-71
2021/08/30 04:09:20;;;;;;;1.08;0.40;;;;;;;;;;5036068;28;20021;-70
2021/08/30 04:11:48;;;;;;;1.75;0.25;;;;;;;;;;5038814;28;20422;-71
2021/08/30 04:14:16;;;;;;;1.75;0.30;;;;;;;;;;5037855;28;20045;-71
2021/08/30 04:16:46;;;;;;;1.08;0.30;;;;;;;;;;5043678;28;20180;-71
2021/08/30 04:19:13;;;;;;;3.88;0.30;;;;;;;;;;5038178;28;20025;-71
2021/08/30 04:21:40;;;;;;;2.70;0.50;;;;;;;;;;5037454;28;20030;-70
2021/08/30 04:24:07;;;;;;;1.02;0.25;;;;;;;;;;5040755;28;20025;-69
2021/08/30 04:26:35;;;;;;;5.35;0.30;;;;;;;;;;5047167;28;20100;-70
2021/08/30 04:29:02;;;;;;;3.58;0.30;;;;;;;;;;5034441;28;20045;-70
2021/08/30 04:31:29;;;;;;;0.98;0.20;;;;;;;;;;5040696;28;20081;-70
2021/08/30 04:33:56;;;;;;;2.13;0.55;;;;;;;;;;5031294;28;20048;-69
2021/08/30 04:36:23;;;;;;;1.48;0.20;;;;;;;;;;5041885;28;20035;-70
2021/08/30 04:38:51;;;;;;;1.30;0.20;;;;;;;;;;5050744;28;20040;-69
2021/08/30 04:41:21;;;;;;;1.63;0.63;;;;;;;;;;5033729;28;20383;-68
2021/08/30 04:43:50;;;;;;;1.10;0.20;;;;;;;;;;5066233;28;20103;-70
2021/08/30 04:46:18;;;;;;;1.73;0.68;;;;;;;;;;5037419;28;20024;-70
2021/08/30 04:48:45;;;;;;;2.53;0.28;;;;;;;;;;5042810;28;20030;-69
2021/08/30 04:51:12;;;;;;;1.00;0.38;;;;;;;;;;5052184;28;20040;-70
2021/08/30 04:53:39;;;;;;;1.38;0.30;;;;;;;;;;5035816;28;20049;-70
2021/08/30 04:56:06;;;;;;;2.25;0.30;;;;;;;;;;5041395;28;20567;-69
2021/08/30 04:58:34;;;;;;;0.73;0.13;;;;;;;;;;5031478;28;20034;-70
2021/08/30 05:01:01;;;;;;;1.10;0.55;;;;;;;;;;5032220;28;20144;-70
2021/08/30 05:03:28;;;;;;;1.83;0.22;;;;;;;;;;5040006;28;20095;-69
2021/08/30 05:05:55;;;;;;;1.13;0.30;;;;;;;;;;5036245;28;20021;-70
2021/08/30 05:08:22;;;;;;;1.88;0.25;;;;;;;;;;5034247;28;20075;-70
2021/08/30 05:10:49;;;;;;;1.60;0.20;;;;;;;;;;5042837;28;20548;-70
2021/08/30 05:13:17;;;;;;;0.98;0.20;;;;;;;;;;5046882;28;20090;-70
2021/08/30 05:15:44;;;;;;;1.65;0.45;;;;;;;;;;5051173;28;20021;-70
2021/08/30 05:18:11;;;;;;;2.03;0.22;;;;;;;;;;5046615;28;20055;-70
2021/08/30 05:20:38;;;;;;;0.93;0.20;;;;;;;;;;5041161;28;20017;-70
2021/08/30 05:23:05;;;;;;;1.75;0.20;;;;;;;;;;5032889;28;20116;-70
2021/08/30 05:25:33;;;;;;;1.58;0.20;;;;;;;;;;5043487;28;20018;-70
2021/08/30 05:28:00;;;;;;;3.10;0.50;;;;;;;;;;5033459;28;20175;-70
2021/08/30 05:30:27;;;;;;;2.53;0.30;;;;;;;;;;5034200;28;20398;-70
2021/08/30 05:32:54;;;;;;;2.17;0.35;;;;;;;;;;5035728;28;20037;-71
2021/08/30 05:35:21;;;;;;;2.00;0.30;;;;;;;;;;5042330;28;20021;-70
2021/08/30 05:37:48;;;;;;;0.80;0.30;;;;;;;;;;5035771;28;20506;-71
2021/08/30 05:40:16;;;;;;;3.00;0.30;;;;;;;;;;5032474;28;20026;-71
2021/08/30 05:42:43;;;;;;;4.15;0.20;;;;;;;;;;5037187;28;20095;-70
2021/08/30 05:45:11;;;;;;;0.52;0.20;;;;;;;;;;5038791;28;20029;-70
2021/08/30 05:47:38;;;;;;;2.70;0.30;;;;;;;;;;5034844;28;20022;-70
2021/08/30 05:50:05;;;;;;;1.90;0.13;;;;;;;;;;5031857;28;20026;-69
2021/08/30 05:52:32;;;;;;;0.75;0.10;;;;;;;;;;5031856;28;20040;-69
2021/08/30 05:54:59;;;;;;;1.73;0.20;;;;;;;;;;5035228;28;20025;-71
2021/08/30 05:57:26;;;;;;;1.63;0.20;;;;;;;;;;5038477;28;20551;-70
2021/08/30 05:59:54;;;;;;;0.90;0.20;;;;;;;;;;5035438;28;20032;-71
2021/08/30 06:02:21;;;;;;;0.70;0.20;;;;;;;;;;5033990;28;20036;-70
2021/08/30 06:04:48;;;;;;;0.82;0.20;;;;;;;;;;5048581;28;20385;-71
2021/08/30 06:07:15;;;;;;;2.97;0.10;;;;;;;;;;5035918;28;20041;-70
2021/08/30 06:09:42;;;;;;;1.48;0.10;;;;;;;;;;5031325;28;20030;-70
2021/08/30 06:12:09;;;;;;;0.40;0.10;;;;;;;;;;5031647;28;20033;-70
2021/08/30 06:14:36;;;;;;;1.35;0.20;;;;;;;;;;5032457;28;20021;-70
2021/08/30 06:17:04;;;;;;;4.63;0.38;;;;;;;;;;5029793;28;20379;-70
2021/08/30 06:19:31;;;;;;;3.60;1.67;;;;;;;;;;5048689;28;20029;-69
2021/08/30 06:21:58;;;;;;;3.95;1.88;;;;;;;;;;5042143;28;20164;-70
2021/08/30 06:24:25;;;;;;;17.65;4.50;;;;;;;;;;5040482;28;20032;-70
2021/08/30 06:26:53;;;;;;;1.42;0.25;;;;;;;;;;5037399;28;21157;-69
2021/08/30 06:29:20;;;;;;;5.05;0.90;;;;;;;;;;5045921;28;20021;-69
2021/08/30 06:31:47;;;;;;;3.03;0.50;;;;;;;;;;5040707;28;20031;-71
2021/08/30 06:34:14;;;;;;;3.75;0.85;;;;;;;;;;5041888;28;20846;-71
2021/08/30 06:36:41;;;;;;;2.92;0.57;;;;;;;;;;5045395;28;20099;-69
2021/08/30 06:39:08;;;;;;;4.68;0.82;;;;;;;;;;5047966;28;20116;-71
2021/08/30 06:41:36;;;;;;;3.53;0.55;;;;;;;;;;5035983;28;20115;-70
2021/08/30 06:44:03;;;;;;;1.52;0.77;;;;;;;;;;5048285;28;20032;-70
2021/08/30 06:46:30;;;;;;;2.35;0.55;;;;;;;;;;5038756;28;20502;-70
2021/08/30 06:48:57;;;;;;;3.15;0.32;;;;;;;;;;5045508;28;20560;-70
2021/08/30 06:51:24;;;;;;;0.57;0.20;;;;;;;;;;5039480;28;20087;-71
2021/08/30 06:53:52;;;;;;;2.40;0.80;;;;;;;;;;5035583;28;20021;-70
2021/08/30 06:56:19;;;;;;;4.30;0.70;;;;;;;;;;5039013;28;20025;-71
2021/08/30 06:58:46;;;;;;;1.90;0.32;;;;;;;;;;5048710;28;20028;-69
2021/08/30 07:01:13;;;;;;;2.05;0.30;;;;;;;;;;5050346;28;20705;-70
2021/08/30 07:03:40;;;;;;;1.08;0.40;;;;;;;;;;5051402;28;20033;-69
2021/08/30 07:06:07;;;;;;;0.77;0.30;;;;;;;;;;5048083;28;20052;-68
2021/08/30 07:08:34;;;;;;;2.75;0.65;;;;;;;;;;5035944;28;20049;-69
2021/08/30 07:11:02;;;;;;;2.50;0.75;;;;;;;;;;5049015;28;20063;-68
2021/08/30 07:13:29;;;;;;;4.22;0.60;;;;;;;;;;5039304;28;20482;-67
2021/08/30 07:15:56;;;;;;;2.50;0.73;;;;;;;;;;5036924;28;20138;-68
2021/08/30 07:18:23;;;;;;;1.33;0.45;;;;;;;;;;5042726;28;20021;-69
2021/08/30 07:20:50;;;;;;;2.20;0.43;;;;;;;;;;5046492;28;20029;-68
2021/08/30 07:23:18;;;;;;;1.52;0.32;;;;;;;;;;5038273;28;20029;-69
2021/08/30 07:25:45;;;;;;;2.70;0.40;;;;;;;;;;5038234;28;20116;-69
2021/08/30 07:28:13;;;;;;;2.00;0.40;;;;;;;;;;5035061;28;20025;-68
2021/08/30 07:30:40;;;;;;;3.55;0.40;;;;;;;;;;5039398;28;20040;-69
2021/08/30 07:33:07;;;;;;;0.90;0.30;;;;;;;;;;5035728;28;20033;-67
2021/08/30 07:35:34;;;;;;;1.05;0.30;;;;;;;;;;5037736;28;20025;-67
2021/08/30 07:38:01;;;;;;;2.15;0.50;;;;;;;;;;5039355;28;20179;-68
2021/08/30 07:40:28;;;;;;;3.20;0.57;;;;;;;;;;5032332;28;20021;-69
2021/08/30 07:42:55;;;;;;;0.88;0.38;;;;;;;;;;5032764;28;20021;-67
2021/08/30 07:45:22;;;;;;;2.55;0.40;;;;;;;;;;5040254;28;20040;-68
2021/08/30 07:47:49;;;;;;;2.22;0.50;;;;;;;;;;5037957;28;20033;-68
2021/08/30 07:50:18;;;;;;;5.85;1.50;;;;;;;;;;5034595;28;20029;-69
2021/08/30 07:52:46;;;;;;;3.83;0.40;;;;;;;;;;5038356;28;20425;-68
2021/08/30 07:55:14;;;;;;;0.93;0.28;;;;;;;;;;5038259;28;20075;-69
2021/08/30 07:57:41;;;;;;;3.55;1.17;;;;;;;;;;5033951;28;20036;-69
2021/08/30 08:00:09;;;;;;;4.75;0.82;;;;;;;;;;5035396;28;20532;-69
2021/08/30 08:02:36;;;;;;;0.90;0.38;;;;;;;;;;5031828;28;20072;-69
2021/08/30 08:05:03;;;;;;;4.07;1.42;;;;;;;;;;5040815;28;20025;-68
2021/08/30 08:07:30;;;;;;;1.80;0.40;;;;;;;;;;5051370;28;20121;-68
2021/08/30 08:09:57;;;;;;;3.28;0.40;;;;;;;;;;5048980;28;20066;-68
2021/08/30 08:12:24;;;;;;;4.85;0.90;;;;;;;;;;5052663;28;20024;-69
2021/08/30 08:14:52;;;;;;;1.05;0.50;;;;;;;;;;5041742;28;20029;-69
2021/08/30 08:17:19;;;;;;;3.63;0.63;;;;;;;;;;5034734;28;20087;-68
2021/08/30 08:19:46;;;;;;;3.85;2.28;;;;;;;;;;5034530;28;20593;-69
2021/08/30 08:22:13;;;;;;;2.97;0.70;;;;;;;;;;5036099;28;20045;-68
2021/08/30 08:24:40;;;;;;;1.90;0.30;;;;;;;;;;5040209;28;20029;-69
2021/08/30 08:27:07;;;;;;;2.10;0.50;;;;;;;;;;5034263;28;20025;-69
2021/08/30 08:29:34;;;;;;;2.20;0.50;;;;;;;;;;5035033;28;20121;-69
2021/08/30 08:32:01;;;;;;;3.53;1.27;;;;;;;;;;5031653;28;20120;-69
2021/08/30 08:34:28;;;;;;;1.67;0.50;;;;;;;;;;5042895;28;20025;-69
2021/08/30 08:37:09;;;;;;;4.93;0.60;;;;;;;;;;5049462;28;20200;-69
2021/08/30 08:39:36;;;;;;;1.60;0.77;;;;;;;;;;5034129;28;20033;-69
2021/08/30 08:42:04;;;;;;;2.15;0.73;;;;;;;;;;5032060;28;20045;-68
2021/08/30 08:44:31;;;;;;;1.48;0.65;;;;;;;;;;5032735;28;20079;-68
2021/08/30 08:46:58;;;;;;;2.83;1.02;;;;;;;;;;5031461;28;20026;-69
2021/08/30 08:49:25;;;;;;;4.60;1.00;;;;;;;;;;5032587;28;20018;-69
2021/08/30 08:51:52;;;;;;;3.17;1.13;;;;;;;;;;5033361;28;20040;-69
2021/08/30 08:54:20;;;;;;;3.25;0.90;;;;;;;;;;5033604;28;20025;-68
2021/08/30 08:56:47;;;;;;;3.17;1.25;;;;;;;;;;5041345;28;20490;-68
2021/08/30 08:59:14;;;;;;;3.92;1.20;;;;;;;;;;5033741;28;20083;-69
2021/08/30 09:01:41;;;;;;;5.03;0.98;;;;;;;;;;5030074;28;20095;-68
2021/08/30 09:04:08;;;;;;;2.65;1.10;;;;;;;;;;5031335;28;20025;-70
2021/08/30 09:06:42;;;;;;;2.55;0.90;;;;;;;;;;5030312;28;20051;-69
2021/08/30 09:09:11;;;;;;;2.03;1.00;;;;;;;;;;5038983;28;20173;-70
2021/08/30 09:11:38;;;;;;;3.65;0.95;;;;;;;;;;5032132;28;20033;-70
2021/08/30 09:14:25;;;;;;;1.92;0.60;;;;;;;;;;5032307;28;20033;-69
2021/08/30 09:17:03;;;;;;;4.60;0.90;;;;;;;;;;5036798;28;20032;-69
2021/08/30 09:19:30;;;;;;;2.75;1.00;;;;;;;;;;5033597;28;20026;-69
2021/08/30 09:21:57;;;;;;;4.80;1.35;;;;;;;;;;5033102;28;20116;-69
2021/08/30 09:24:26;;;;;;;3.75;0.85;;;;;;;;;;5031290;28;20032;-69
2021/08/30 09:26:53;;;;;;;5.43;1.02;;;;;;;;;;5032773;28;20030;-69
2021/08/30 09:29:21;;;;;;;4.50;1.50;;;;;;;;;;5030150;28;20112;-69
2021/08/30 09:32:00;;;;;;;3.60;0.80;;;;;;;;;;5031662;28;20021;-69
2021/08/30 09:34:35;;;;;;;3.80;1.00;;;;;;;;;;5031218;28;20112;-69
2021/08/30 09:37:04;;;;;;;4.32;1.00;;;;;;;;;;5043077;28;20099;-69
2021/08/30 09:39:32;;;;;;;4.35;0.93;;;;;;;;;;5032451;28;20389;-69
2021/08/30 09:42:00;;;;;;;3.90;0.95;;;;;;;;;;5033030;28;20083;-69
2021/08/30 09:44:28;;;;;;;5.82;1.60;;;;;;;;;;5035693;28;20099;-70
2021/08/30 09:46:56;;;;;;;5.30;1.40;;;;;;;;;;5040719;28;20024;-69
2021/08/30 09:49:24;;;;;;;3.55;1.00;;;;;;;;;;5040473;28;20025;-69
2021/08/30 09:51:54;;;;;;;5.03;1.23;;;;;;;;;;5033601;28;20065;-69
2021/08/30 09:54:23;;;;;;;3.35;0.70;;;;;;;;;;5039703;28;20017;-70
2021/08/30 09:56:51;;;;;;;2.90;1.35;;;;;;;;;;5035659;28;20025;-69
2021/08/30 09:59:18;;;;;;;4.07;0.85;;;;;;;;;;5035749;28;20028;-68
2021/08/30 10:01:46;;;;;;;4.03;0.90;;;;;;;;;;5045284;28;20030;-67
2021/08/30 10:04:19;;;;;;;7.25;1.20;;;;;;;;;;5033464;28;20474;-67
2021/08/30 10:06:47;;;;;;;5.78;1.05;;;;;;;;;;5036023;28;20037;-68
2021/08/30 10:09:16;;;;;;;6.47;0.93;;;;;;;;;;5034000;28;20022;-67
2021/08/30 10:11:44;;;;;;;3.33;0.93;;;;;;;;;;5052950;28;20390;-68
2021/08/30 10:14:12;;;;;;;4.63;1.10;;;;;;;;;;5047449;28;20081;-68
2021/08/30 10:16:44;;;;;;;1.73;0.90;;;;;;;;;;5035045;28;20103;-68
2021/08/30 10:19:11;;;;;;;4.38;1.50;;;;;;;;;;5036614;28;20025;-68
2021/08/30 10:21:45;;;;;;;6.30;2.15;;;;;;;;;;5038214;28;20038;-67
2021/08/30 10:24:14;;;;;;;8.15;1.95;;;;;;;;;;5047994;28;20032;-68
2021/08/30 10:26:41;;;;;;;5.95;1.65;;;;;;;;;;5055195;28;20025;-69
2021/08/30 10:29:11;;;;;;;6.35;1.75;;;;;;;;;;5037459;28;20029;-67
2021/08/30 10:31:53;;;;;;;3.75;1.48;;;;;;;;;;5034047;28;20088;-68
2021/08/30 10:34:30;;;;;;;3.60;1.75;;;;;;;;;;5042420;28;20028;-68
2021/08/30 10:36:58;;;;;;;4.13;1.40;;;;;;;;;;5037402;28;20094;-69
2021/08/30 10:39:36;;;;;;;3.65;1.70;;;;;;;;;;5037471;28;20017;-68
2021/08/30 10:42:04;;;;;;;6.85;1.52;;;;;;;;;;5046883;28;20037;-68
2021/08/30 10:44:32;;;;;;;6.40;1.90;;;;;;;;;;5041776;28;20421;-68
2021/08/30 10:47:01;;;;;;;6.82;2.80;;;;;;;;;;5033491;28;20075;-67
2021/08/30 10:49:29;;;;;;;5.65;2.60;;;;;;;;;;5043179;28;20020;-67
2021/08/30 10:52:06;;;;;;;3.47;1.70;;;;;;;;;;5038433;28;20052;-68
2021/08/30 10:54:33;;;;;;;5.57;2.20;;;;;;;;;;5039121;28;20092;-68
2021/08/30 10:57:03;;;;;;;4.82;2.47;;;;;;;;;;5048206;28;20032;-68
2021/08/30 10:59:31;;;;;;;6.07;1.80;;;;;;;;;;5040089;28;20033;-68
2021/08/30 11:02:06;;;;;;;6.40;1.55;;;;;;;;;;5033524;28;20095;-68
2021/08/30 11:04:40;;;;;;;4.82;1.58;;;;;;;;;;5034118;28;20375;-68
2021/08/30 11:07:10;;;;;;;4.00;1.30;;;;;;;;;;5034980;28;20390;-69
2021/08/30 11:09:45;;;;;;;8.10;1.52;;;;;;;;;;5044856;28;20090;-69
2021/08/30 11:12:14;;;;;;;4.43;1.23;;;;;;;;;;5036139;28;20041;-68
2021/08/30 11:14:41;;;;;;;3.72;1.90;;;;;;;;;;5037747;28;20504;-68
2021/08/30 11:17:12;;;;;;;9.23;2.80;;;;;;;;;;5034291;28;20029;-68
2021/08/30 11:19:39;;;;;;;4.68;1.75;;;;;;;;;;5037102;28;20033;-68
2021/08/30 11:22:07;;;;;;;9.35;1.75;;;;;;;;;;5043314;28;20120;-68
2021/08/30 11:24:36;;;;;;;6.28;1.42;;;;;;;;;;5038669;28;20049;-68
2021/08/30 11:27:26;;;;;;;4.80;2.22;;;;;;;;;;5044678;28;20483;-68
2021/08/30 11:29:54;;;;;;;5.47;2.50;;;;;;;;;;5038797;28;20029;-68
2021/08/30 11:32:24;;;;;;;9.23;3.08;;;;;;;;;;5035646;28;20037;-68
2021/08/30 11:34:51;;;;;;;10.10;4.05;;;;;;;;;;5040985;28;20422;-68
2021/08/30 11:37:20;;;;;;;8.77;3.42;;;;;;;;;;5045522;28;20058;-68
2021/08/30 11:39:47;;;;;;;9.00;3.53;;;;;;;;;;5044608;28;20474;-69
2021/08/30 11:42:16;;;;;;;8.35;4.28;;;;;;;;;;5038669;28;20033;-68
2021/08/30 11:44:43;;;;;;;9.20;2.83;;;;;;;;;;5043439;28;20112;-68
2021/08/30 11:47:12;;;;;;;9.20;3.53;;;;;;;;;;5037891;28;20478;-68
2021/08/30 11:49:50;;;;;;;7.82;3.22;;;;;;;;;;5039082;28;20370;-69
2021/08/30 11:52:18;;;;;;;5.55;1.88;;;;;;;;;;5037883;28;20471;-69
2021/08/30 11:54:58;;;;;;;6.88;1.40;;;;;;;;;;5032438;28;20029;-69
2021/08/30 11:57:26;;;;;;;4.95;1.75;;;;;;;;;;5033742;28;20041;-69
2021/08/30 11:59:54;;;;;;;2.75;1.30;;;;;;;;;;5035648;28;20512;-69
2021/08/30 12:02:21;;;;;;;3.97;1.55;;;;;;;;;;5046028;28;20041;-69
2021/08/30 12:04:49;;;;;;;3.20;1.38;;;;;;;;;;5040092;28;20152;-69
2021/08/30 12:07:18;;;;;;;4.88;1.60;;;;;;;;;;5038156;28;20060;-68
2021/08/30 12:09:47;;;;;;;4.10;1.38;;;;;;;;;;5032938;28;20080;-69
2021/08/30 12:12:17;;;;;;;3.80;1.05;;;;;;;;;;5041257;28;20037;-68
2021/08/30 12:15:04;;;;;;;4.18;1.38;;;;;;;;;;5034703;28;20014;-68
2021/08/30 12:17:34;;;;;;;2.67;1.38;;;;;;;;;;5037746;28;20025;-68
2021/08/30 12:20:03;;;;;;;2.72;1.13;;;;;;;;;;5033273;28;20472;-69
2021/08/30 12:22:34;;;;;;;3.22;1.33;;;;;;;;;;5037809;28;20044;-68
2021/08/30 12:25:12;;;;;;;2.90;1.15;;;;;;;;;;5034512;28;20079;-68
2021/08/30 12:27:40;;;;;;;5.00;1.40;;;;;;;;;;5031158;28;20478;-68
2021/08/30 12:30:11;;;;;;;3.92;1.27;;;;;;;;;;5035030;28;20535;-68
2021/08/30 12:32:56;;;;;;;4.30;0.80;;;;;;;;;;5035071;28;20446;-68
2021/08/30 12:35:28;;;;;;;3.70;1.20;;;;;;;;;;5037037;28;20163;-68
2021/08/30 12:37:56;;;;;;;3.97;1.42;;;;;;;;;;5035422;28;20047;-67
2021/08/30 12:40:24;;;;;;;4.10;1.17;;;;;;;;;;5034537;28;20068;-68
2021/08/30 12:42:52;;;;;;;8.38;1.77;;;;;;;;;;5043956;28;20025;-68
2021/08/30 12:45:19;;;;;;;5.03;1.42;;;;;;;;;;5036708;28;20032;-68
2021/08/30 12:47:46;;;;;;;3.72;1.60;;;;;;;;;;5034815;28;20030;-68
2021/08/30 12:50:14;;;;;;;7.20;2.33;;;;;;;;;;5032717;28;20025;-68
2021/08/30 12:52:41;;;;;;;3.28;1.65;;;;;;;;;;5037151;28;20034;-69
2021/08/30 12:55:09;;;;;;;5.32;1.98;;;;;;;;;;5030830;28;20048;-68
2021/08/30 12:57:36;;;;;;;4.68;1.60;;;;;;;;;;5034467;28;20032;-70
2021/08/30 13:00:10;;;;;;;4.43;2.22;;;;;;;;;;5036206;28;20108;-69
2021/08/30 13:02:37;;;;;;;5.55;2.42;;;;;;;;;;5035648;28;20064;-69
2021/08/30 13:05:05;;;;;;;4.70;1.88;;;;;;;;;;5030156;28;20151;-69
2021/08/30 13:07:32;;;;;;;3.30;1.70;;;;;;;;;;5031743;28;20037;-69
2021/08/30 13:09:59;;;;;;;3.65;1.60;;;;;;;;;;5034001;28;20022;-69
2021/08/30 13:12:26;;;;;;;7.90;2.13;;;;;;;;;;5035625;28;20056;-69
2021/08/30 13:14:53;;;;;;;3.70;1.80;;;;;;;;;;5031031;28;20025;-69
2021/08/30 13:17:20;;;;;;;4.05;1.85;;;;;;;;;;5034631;28;20030;-69
2021/08/30 13:19:47;;;;;;;7.78;1.95;;;;;;;;;;5040530;28;20021;-67
2021/08/30 13:22:15;;;;;;;5.82;2.30;;;;;;;;;;5031445;28;20033;-70
2021/08/30 13:24:42;;;;;;;6.65;2.30;;;;;;;;;;5031640;28;20485;-69
2021/08/30 13:27:09;;;;;;;4.70;2.40;;;;;;;;;;5036208;28;20040;-69
2021/08/30 13:29:36;;;;;;;6.35;2.53;;;;;;;;;;5037017;28;20049;-69
2021/08/30 13:32:03;;;;;;;5.53;2.30;;;;;;;;;;5031692;28;20068;-70
2021/08/30 13:34:30;;;;;;;8.00;2.70;;;;;;;;;;5032074;28;20075;-70
2021/08/30 13:36:57;;;;;;;5.50;2.45;;;;;;;;;;5043236;28;20077;-70
2021/08/30 13:39:24;;;;;;;10.48;2.63;;;;;;;;;;5034487;28;20109;-70
2021/08/30 13:41:51;;;;;;;9.57;2.83;;;;;;;;;;5032186;28;20034;-70
2021/08/30 13:44:19;;;;;;;8.10;3.10;;;;;;;;;;5032151;28;20446;-69
2021/08/30 13:46:46;;;;;;;9.30;3.67;;;;;;;;;;5040794;28;20066;-70
2021/08/30 13:49:13;;;;;;;6.00;2.67;;;;;;;;;;5033574;28;20102;-69
2021/08/30 13:51:41;;;;;;;8.05;3.67;;;;;;;;;;5033677;28;20036;-68
2021/08/30 13:54:09;;;;;;;10.70;3.97;;;;;;;;;;5033344;28;20168;-69
2021/08/30 13:56:36;;;;;;;12.18;3.97;;;;;;;;;;5035910;28;20378;-68
2021/08/30 13:59:04;;;;;;;10.60;4.10;;;;;;;;;;5032604;28;20063;-68
2021/08/30 14:01:31;;;;;;;11.48;3.88;;;;;;;;;;5040871;28;20029;-69
2021/08/30 14:03:58;;;;;;;8.18;3.28;;;;;;;;;;5043527;28;20029;-69
2021/08/30 14:06:25;;;;;;;8.27;4.07;;;;;;;;;;5034534;28;20017;-69
2021/08/30 14:08:52;;;;;;;9.85;4.05;;;;;;;;;;5032564;28;20021;-69
2021/08/30 14:11:19;;;;;;;8.38;3.80;;;;;;;;;;5031432;28;20382;-69
2021/08/30 14:13:46;;;;;;;10.80;4.10;;;;;;;;;;5031549;28;20097;-69
2021/08/30 14:16:14;;;;;;;6.65;3.28;;;;;;;;;;5033890;28;20122;-68
2021/08/30 14:18:41;;;;;;;8.43;4.15;;;;;;;;;;5034070;28;20457;-69
2021/08/30 14:21:08;;;;;;;12.80;3.55;;;;;;;;;;5036008;28;20033;-68
2021/08/30 14:23:37;;;;;;;9.00;3.55;;;;;;;;;;5031572;28;20049;-69
2021/08/30 14:26:05;;;;;;;7.95;3.33;;;;;;;;;;5049238;28;20033;-69
2021/08/30 14:28:32;;;;;;;9.20;3.60;;;;;;;;;;5043589;28;20048;-69
2021/08/30 14:31:00;;;;;;;8.98;3.55;;;;;;;;;;5031644;28;20053;-68
2021/08/30 14:33:27;;;;;;;10.18;3.50;;;;;;;;;;5039851;28;20025;-69
2021/08/30 14:35:54;;;;;;;6.20;3.30;;;;;;;;;;5031404;28;20033;-69
2021/08/30 14:38:22;;;;;;;6.47;3.50;;;;;;;;;;5030764;28;20052;-68
2021/08/30 14:40:49;;;;;;;11.35;4.47;;;;;;;;;;5037054;28;20021;-69
2021/08/30 14:43:16;;;;;;;10.90;3.20;;;;;;;;;;5052423;28;20033;-67
2021/08/30 14:45:44;;;;;;;9.57;4.63;;;;;;;;;;5035537;28;20044;-68
2021/08/30 14:48:11;;;;;;;9.30;3.53;;;;;;;;;;5036647;28;20132;-68
2021/08/30 14:50:38;;;;;;;6.85;3.33;;;;;;;;;;5038283;28;20501;-68
2021/08/30 14:53:07;;;;;;;6.90;3.50;;;;;;;;;;5034475;28;20539;-68